Time;durP1;ratioP1;P1;durP2;ratioP2;P2;SDS_P1;SDS_P2;PMS_P1;PMS_P2;Temp;Humidity;BMP_temperature;BMP_pressure;BME280_temperature;BME280_humidity;BME280_pressure;Samples;Min_cycle;Max_cycle;Signal;HPM_P1;HPM_P2
2021/12/05 00:24:14;;;;;;;;;;;;;;;11.44;55.58;99709.44;5025515;28;19924;-83
2021/12/05 00:26:45;;;;;;;;;;;;;;;11.84;53.80;99716.63;5023750;28;19925;-85
2021/12/05 00:29:34;;;;;;;;;;;;;;;11.47;54.49;99717.38;5038201;28;19925;-83
2021/12/05 00:32:07;;;;;;;;;;;;;;;12.04;53.83;99712.50;5019644;28;19921;-83
2021/12/05 00:40:13;;;;;;;;;;;;;;;12.20;53.87;99704.16;5025603;28;19968;-85
2021/12/05 01:07:03;;;;;;;;;;;;;;;11.43;56.23;99696.00;5020671;28;19948;-84
2021/12/05 01:14:37;;;;;;;;;;;;;;;11.25;56.72;99695.47;5020269;28;20501;-84
2021/12/05 01:17:03;;;;;;;;;;;;;;;10.88;57.62;99695.25;5035549;28;19967;-84
2021/12/05 01:19:32;;;;;;;;;;;;;;;10.64;58.84;99690.50;5036764;28;19964;-85
2021/12/05 01:22:00;;;;;;;;;;;;;;;10.24;60.89;99690.41;5036965;28;19917;-83
2021/12/05 01:27:33;;;;;;;;;;;;;;;11.05;59.03;99685.97;5020904;28;19964;-84
2021/12/05 01:30:10;;;;;;;;;;;;;;;10.80;58.97;99684.94;5036565;28;20021;-83
2021/12/05 01:35:36;;;;;;;;;;;;;;;10.41;59.39;99687.47;5021410;28;19940;-84
2021/12/05 01:38:16;;;;;;;;;;;;;;;10.10;60.55;99685.91;5036482;28;19918;-85
2021/12/05 01:41:14;;;;;;;;;;;;;;;10.57;59.08;99694.63;5019750;28;19929;-85
2021/12/05 02:08:32;;;;;;;;;;;;;;;10.13;60.23;99690.22;5020320;28;20425;-83
2021/12/05 02:43:14;;;;;;;;;;;;;;;9.88;62.67;99684.53;5021614;28;19929;-84
2021/12/05 02:45:45;;;;;;;;;;;;;;;10.16;62.28;99684.59;5021301;28;19913;-84
2021/12/05 02:48:10;;;;;;;;;;;;;;;10.06;62.00;99685.22;5034953;28;19925;-86
2021/12/05 02:50:37;;;;;;;;;;;;;;;9.62;62.85;99690.72;5036515;28;19917;-84
2021/12/05 02:53:12;;;;;;;;;;;;;;;9.54;63.69;99694.78;5036055;28;20367;-83
2021/12/05 02:55:40;;;;;;;;;;;;;;;9.81;61.34;99688.59;5035299;28;19957;-83
2021/12/05 03:03:23;;;;;;;;;;;;;;;9.32;64.68;99679.03;5020908;28;19917;-84
2021/12/05 03:05:56;;;;;;;;;;;;;;;9.43;64.51;99677.50;5036266;28;19913;-84
2021/12/05 03:08:21;;;;;;;;;;;;;;;9.89;61.54;99674.63;5035432;28;19971;-83
2021/12/05 03:10:48;;;;;;;;;;;;;;;10.36;59.97;99675.25;5035381;28;19921;-83
2021/12/05 03:13:13;;;;;;;;;;;;;;;9.67;62.76;99677.81;5035846;28;19912;-85
2021/12/05 03:15:39;;;;;;;;;;;;;;;9.08;67.29;99691.31;5018572;28;19918;-84
2021/12/05 03:18:04;;;;;;;;;;;;;;;9.72;63.14;99675.66;5035137;28;19914;-85
2021/12/05 03:20:29;;;;;;;;;;;;;;;9.44;63.02;99681.94;5020845;28;19917;-84
2021/12/05 03:22:55;;;;;;;;;;;;;;;9.65;63.71;99682.44;5025087;28;20099;-84
2021/12/05 03:25:20;;;;;;;;;;;;;;;9.52;63.31;99683.19;5040199;28;19924;-84
2021/12/05 03:27:45;;;;;;;;;;;;;;;9.64;61.69;99683.41;5040117;28;19921;-84
2021/12/05 03:30:13;;;;;;;;;;;;;;;9.36;62.53;99687.78;5038759;28;19921;-82
2021/12/05 03:32:39;;;;;;;;;;;;;;;9.43;62.91;99680.19;5038599;28;19972;-83
2021/12/05 03:35:05;;;;;;;;;;;;;;;9.95;60.63;99687.75;5039504;28;20383;-82
2021/12/05 03:37:31;;;;;;;;;;;;;;;9.44;61.76;99681.94;5022964;28;19924;-84
2021/12/05 03:39:56;;;;;;;;;;;;;;;9.42;61.29;99689.25;5040921;28;19926;-84
2021/12/05 03:42:21;;;;;;;;;;;;;;;9.45;64.01;99689.94;5040556;28;19917;-83
2021/12/05 03:44:47;;;;;;;;;;;;;;;9.84;61.90;99695.66;5025304;28;19917;-82
2021/12/05 03:47:12;;;;;;;;;;;;;;;9.40;62.17;99692.94;5040136;28;19968;-81
2021/12/05 03:49:37;;;;;;;;;;;;;;;10.41;58.93;99686.63;5039380;28;19917;-83
2021/12/05 03:52:08;;;;;;;;;;;;;;;9.32;63.03;99697.91;5040628;28;20359;-81
2021/12/05 03:54:34;;;;;;;;;;;;;;;9.43;62.53;99702.66;5041164;28;19918;-82
2021/12/05 03:57:00;;;;;;;;;;;;;;;10.09;59.47;99700.38;5042422;28;20012;-84
2021/12/05 03:59:28;;;;;;;;;;;;;;;9.55;62.01;99707.28;5045489;28;19939;-82
2021/12/05 04:01:53;;;;;;;;;;;;;;;10.24;59.42;99698.50;5044854;28;19977;-82
2021/12/05 04:04:18;;;;;;;;;;;;;;;10.08;59.88;99702.22;5028472;28;19924;-83
2021/12/05 04:06:45;;;;;;;;;;;;;;;9.47;63.21;99715.00;5042322;28;19914;-84
2021/12/05 04:09:11;;;;;;;;;;;;;;;10.13;61.01;99699.22;5023389;28;19948;-85
2021/12/05 04:11:41;;;;;;;;;;;;;;;9.99;61.84;99704.63;5038943;28;19921;-84
2021/12/05 04:14:09;;;;;;;;;;;;;;;10.23;59.76;99700.31;5023474;28;20020;-82
2021/12/05 04:16:35;;;;;;;;;;;;;;;10.28;59.62;99705.44;5039577;28;19919;-85
2021/12/05 04:19:01;;;;;;;;;;;;;;;9.93;61.36;99717.56;5039206;28;20399;-84
2021/12/05 04:21:26;;;;;;;;;;;;;;;9.53;63.29;99711.94;5038786;28;19921;-83
2021/12/05 04:23:52;;;;;;;;;;;;;;;9.45;62.50;99716.94;5022930;28;19917;-84
2021/12/05 04:26:17;;;;;;;;;;;;;;;10.58;59.17;99712.56;5039209;28;19917;-80
2021/12/05 04:28:43;;;;;;;;;;;;;;;10.00;60.38;99707.22;5037808;28;19918;-83
2021/12/05 04:31:09;;;;;;;;;;;;;;;9.71;62.04;99717.16;5038324;28;19917;-84
2021/12/05 04:33:35;;;;;;;;;;;;;;;10.32;59.96;99706.97;5039498;28;20379;-82
2021/12/05 04:36:00;;;;;;;;;;;;;;;10.13;60.41;99723.53;5039574;28;19918;-84
2021/12/05 04:38:26;;;;;;;;;;;;;;;9.83;61.11;99726.31;5039936;28;20290;-83
2021/12/05 04:40:52;;;;;;;;;;;;;;;10.11;60.99;99722.75;5039517;28;19924;-82
2021/12/05 04:43:17;;;;;;;;;;;;;;;9.49;62.14;99731.13;5039449;28;19924;-82
2021/12/05 04:45:44;;;;;;;;;;;;;;;9.61;60.99;99726.81;5022614;28;19918;-82
2021/12/05 04:48:10;;;;;;;;;;;;;;;9.79;61.04;99728.34;5038968;28;19924;-81
2021/12/05 04:50:36;;;;;;;;;;;;;;;9.20;62.05;99737.31;5025379;28;19977;-84
2021/12/05 04:53:01;;;;;;;;;;;;;;;10.31;59.71;99726.91;5040771;28;19984;-83
2021/12/05 04:55:27;;;;;;;;;;;;;;;10.20;59.10;99730.25;5039778;28;19957;-82
2021/12/05 04:57:52;;;;;;;;;;;;;;;10.01;59.94;99724.28;5039009;28;19925;-82
2021/12/05 05:00:26;;;;;;;;;;;;;;;10.15;58.99;99729.69;5024244;28;19918;-83
2021/12/05 05:02:52;;;;;;;;;;;;;;;10.94;56.55;99727.31;5040501;28;19917;-86
2021/12/05 05:05:18;;;;;;;;;;;;;;;9.86;60.86;99734.25;5039786;28;19924;-83
2021/12/05 05:07:44;;;;;;;;;;;;;;;10.57;58.66;99733.31;5038483;28;19929;-83
2021/12/05 05:10:13;;;;;;;;;;;;;;;10.56;58.60;99733.44;5022119;28;19947;-84
2021/12/05 05:12:38;;;;;;;;;;;;;;;10.75;58.49;99735.78;5023007;28;19984;-85
2021/12/05 05:15:04;;;;;;;;;;;;;;;10.61;58.25;99740.28;5036359;28;19953;-85
2021/12/05 05:17:30;;;;;;;;;;;;;;;9.80;61.89;99762.50;5038373;28;19918;-84
2021/12/05 05:20:00;;;;;;;;;;;;;;;10.03;61.72;99754.81;5038704;28;20589;-84
2021/12/05 05:22:43;;;;;;;;;;;;;;;10.26;59.95;99756.91;5023160;28;20438;-84
2021/12/05 05:49:19;;;;;;;;;;;;;;;10.82;56.66;99770.47;5027035;28;19953;-83
2021/12/05 05:51:44;;;;;;;;;;;;;;;11.11;55.65;99766.75;5041718;28;20329;-83
2021/12/05 05:54:09;;;;;;;;;;;;;;;10.53;57.02;99777.75;5042635;28;19922;-85
2021/12/05 05:56:36;;;;;;;;;;;;;;;10.75;57.22;99782.66;5042032;28;19918;-84
2021/12/05 05:59:07;;;;;;;;;;;;;;;11.03;56.82;99782.66;5040880;28;20032;-84
2021/12/05 06:04:01;;;;;;;;;;;;;;;10.80;56.81;99782.34;5024700;28;20004;-83
2021/12/05 06:06:27;;;;;;;;;;;;;;;10.85;56.84;99779.34;5040285;28;19914;-84
2021/12/05 06:08:52;;;;;;;;;;;;;;;10.94;56.83;99786.84;5040511;28;19925;-84
2021/12/05 06:11:18;;;;;;;;;;;;;;;10.65;57.98;99789.63;5040213;28;19967;-84
2021/12/05 06:13:43;;;;;;;;;;;;;;;10.35;58.55;99796.03;5024860;28;19918;-84
2021/12/05 06:16:10;;;;;;;;;;;;;;;11.44;54.64;99803.38;5025217;28;19917;-82
2021/12/05 06:18:35;;;;;;;;;;;;;;;10.93;56.69;99809.44;5041574;28;19918;-83
2021/12/05 06:21:00;;;;;;;;;;;;;;;10.94;54.78;99817.47;5023861;28;19924;-85
2021/12/05 06:23:25;;;;;;;;;;;;;;;11.25;54.47;99814.59;5025665;28;19976;-84
2021/12/05 06:25:52;;;;;;;;;;;;;;;10.85;55.64;99828.91;5023711;28;19949;-85
2021/12/05 06:28:23;;;;;;;;;;;;;;;10.89;56.32;99822.31;5023397;28;19953;-82
2021/12/05 06:31:04;;;;;;;;;;;;;;;11.24;55.42;99826.38;5040534;28;19925;-83
2021/12/05 06:42:48;;;;;;;;;;;;;;;11.35;54.95;99837.34;5025735;28;19932;-85
2021/12/05 06:47:24;;;;;;;;;;;;;;;10.84;57.01;99843.41;5027279;28;20279;-81
2021/12/05 06:49:50;;;;;;;;;;;;;;;10.25;58.68;99847.09;5027532;28;19918;-84
2021/12/05 06:52:15;;;;;;;;;;;;;;;10.53;58.25;99839.97;5043096;28;19925;-83
2021/12/05 06:54:40;;;;;;;;;;;;;;;10.74;57.44;99839.56;5039073;28;19917;-84
2021/12/05 06:57:06;;;;;;;;;;;;;;;10.53;58.09;99842.66;5038172;28;19928;-84
2021/12/05 06:59:32;;;;;;;;;;;;;;;10.80;57.37;99853.53;5037436;28;20446;-83
2021/12/05 07:01:57;;;;;;;;;;;;;;;10.52;57.95;99857.13;5037118;28;19918;-84
2021/12/05 07:06:48;;;;;;;;;;;;;;;10.97;56.32;99859.69;5021938;28;19989;-84
2021/12/05 07:09:13;;;;;;;;;;;;;;;10.61;58.03;99866.50;5021014;28;20012;-85
2021/12/05 07:16:57;;;;;;;;;;;;;;;10.58;57.33;99877.53;5022570;28;19929;-86
2021/12/05 07:22:03;;;;;;;;;;;;;;;10.66;57.66;99887.84;5022779;28;19917;-85
2021/12/05 07:40:56;;;;;;;;;;;;;;;11.63;53.76;99912.19;5023259;28;19928;-84
2021/12/05 07:43:21;;;;;;;;;;;;;;;12.02;52.54;99909.66;5022732;28;19917;-84
2021/12/05 07:45:54;;;;;;;;;;;;;;;12.06;52.38;99916.56;5021941;28;20064;-85
2021/12/05 07:48:24;;;;;;;;;;;;;;;11.97;52.09;99911.78;5038531;28;20431;-84
2021/12/05 07:53:40;;;;;;;;;;;;;;;12.05;52.52;99920.28;5023034;28;19917;-85
2021/12/05 07:56:09;;;;;;;;;;;;;;;12.46;50.98;99930.09;5038345;28;19953;-84
2021/12/05 08:15:15;;;;;;;;;;;;;;;11.04;56.13;99947.66;5026111;28;19979;-85
2021/12/05 08:17:41;;;;;;;;;;;;;;;11.77;53.74;99948.34;5023262;28;19949;-85
2021/12/05 08:20:09;;;;;;;;;;;;;;;11.95;52.75;99952.56;5040138;28;19921;-86
2021/12/05 08:22:34;;;;;;;;;;;;;;;11.64;53.61;99961.81;5039447;28;19924;-84
2021/12/05 08:25:07;;;;;;;;;;;;;;;11.64;54.05;99961.81;5039687;28;19917;-84
2021/12/05 08:27:33;;;;;;;;;;;;;;;11.49;54.05;99969.16;5039000;28;19917;-84
2021/12/05 08:30:06;;;;;;;;;;;;;;;11.79;54.03;99970.78;5039459;28;19948;-84
2021/12/05 08:32:45;;;;;;;;;;;;;;;11.50;54.01;99974.47;5038895;28;19918;-83
2021/12/05 08:35:44;;;;;;;;;;;;;;;11.15;55.09;99988.44;5023226;28;19925;-84
2021/12/05 08:46:26;;;;;;;;;;;;;;;11.35;55.00;99979.03;5021018;28;19968;-84
2021/12/05 09:29:13;;;;;;;;;;;;;;;11.62;55.38;100048.63;5019343;28;20374;-89
2021/12/05 09:40:12;;;;;;;;;;;;;;;10.50;60.22;100072.72;5022532;28;19932;-91
2021/12/05 09:52:31;;;;;;;;;;;;;;;11.27;57.23;100088.81;5027837;28;20413;-87
2021/12/05 10:02:35;;;;;;;;;;;;;;;10.56;59.76;100099.41;5033823;28;19913;-86
2021/12/05 10:15:55;;;;;;;;;;;;;;;10.85;58.40;100115.72;5025804;28;20012;-88
2021/12/05 10:35:24;;;;;;;;;;;;;;;12.92;51.83;100116.84;5023781;28;20038;-87
2021/12/05 10:37:55;;;;;;;;;;;;;;;12.47;52.71;100131.69;5040881;28;19917;-86
2021/12/05 10:40:44;;;;;;;;;;;;;;;13.68;51.05;100119.72;5023035;28;19956;-87
2021/12/05 10:43:12;;;;;;;;;;;;;;;13.74;50.02;100127.41;5024704;28;19921;-90
2021/12/05 10:45:39;;;;;;;;;;;;;;;13.81;48.53;100134.16;5036838;28;20379;-90
2021/12/05 10:48:22;;;;;;;;;;;;;;;13.02;51.04;100133.34;5024865;28;19918;-92
2021/12/05 10:50:53;;;;;;;;;;;;;;;12.43;53.36;100138.31;5016434;28;20323;-87
2021/12/05 10:53:19;;;;;;;;;;;;;;;12.44;52.74;100145.47;5015966;28;19918;-88
2021/12/05 10:55:53;;;;;;;;;;;;;;;12.07;54.76;100139.78;5037991;28;20395;-87
2021/12/05 10:58:23;;;;;;;;;;;;;;;13.19;51.53;100144.91;5035814;28;19905;-91
2021/12/05 11:00:51;;;;;;;;;;;;;;;12.74;53.00;100142.53;5037216;28;19925;-91
2021/12/05 11:03:18;;;;;;;;;;;;;;;12.96;51.41;100147.34;5029432;23;19925;-90
2021/12/05 11:05:44;;;;;;;;;;;;;;;13.79;49.40;100141.53;5019488;28;19925;-93
2021/12/05 11:08:28;;;;;;;;;;;;;;;13.18;50.29;100146.75;5020353;28;19917;-86
2021/12/05 11:11:10;;;;;;;;;;;;;;;12.00;53.46;100161.88;5020225;28;19918;-88
2021/12/05 11:13:37;;;;;;;;;;;;;;;14.74;48.77;100140.91;5019468;28;19932;-89
2021/12/05 11:16:02;;;;;;;;;;;;;;;13.56;51.67;100145.06;5036214;28;19967;-87
2021/12/05 11:18:41;;;;;;;;;;;;;;;14.29;49.82;100149.69;5019386;28;20335;-92
2021/12/05 11:21:32;;;;;;;;;;;;;;;13.03;50.46;100159.53;5018416;28;19918;-87
2021/12/05 11:24:08;;;;;;;;;;;;;;;13.50;49.91;100159.06;5003500;28;19917;-88
2021/12/05 11:26:34;;;;;;;;;;;;;;;14.43;48.95;100161.38;5020214;28;19922;-89
2021/12/05 11:29:00;;;;;;;;;;;;;;;14.61;48.22;100159.16;5021715;28;20363;-94
2021/12/05 11:31:26;;;;;;;;;;;;;;;14.08;49.22;100156.72;5024983;28;20067;-91
2021/12/05 11:33:54;;;;;;;;;;;;;;;14.63;47.88;100159.91;5019767;28;19925;-90
2021/12/05 11:36:29;;;;;;;;;;;;;;;15.39;46.33;100155.00;5043669;28;19918;-89
2021/12/05 11:39:25;;;;;;;;;;;;;;;15.69;45.76;100161.72;5041984;28;19933;-89
2021/12/05 11:41:56;;;;;;;;;;;;;;;14.89;46.61;100166.13;5019430;28;19918;-94
2021/12/05 11:44:24;;;;;;;;;;;;;;;14.54;46.72;100175.94;5047739;28;20000;-90
2021/12/05 11:46:49;;;;;;;;;;;;;;;15.03;46.30;100168.63;5035082;28;19979;-86
2021/12/05 11:49:20;;;;;;;;;;;;;;;15.07;44.90;100182.91;5022279;28;19922;-92
2021/12/05 11:51:52;;;;;;;;;;;;;;;15.92;43.62;100178.97;5022354;28;19928;-87
2021/12/05 11:54:26;;;;;;;;;;;;;;;15.99;43.87;100173.88;5030900;28;19929;-89
2021/12/05 11:57:03;;;;;;;;;;;;;;;16.01;44.28;100178.22;5037784;28;19917;-87
2021/12/05 11:59:33;;;;;;;;;;;;;;;16.11;42.62;100184.69;5028200;28;19922;-90
2021/12/05 12:02:02;;;;;;;;;;;;;;;15.47;44.70;100189.81;5013821;28;20015;-89
2021/12/05 12:04:42;;;;;;;;;;;;;;;14.67;46.04;100204.97;5011725;28;20016;-90
2021/12/05 12:07:14;;;;;;;;;;;;;;;15.05;46.40;100198.47;5054055;28;19921;-89
2021/12/05 12:09:39;;;;;;;;;;;;;;;13.83;49.08;100199.31;5010275;28;19929;-84
2021/12/05 12:12:05;;;;;;;;;;;;;;;14.83;47.46;100196.53;5011559;28;19921;-86
2021/12/05 12:14:31;;;;;;;;;;;;;;;14.33;48.13;100202.03;5026943;28;19921;-88
2021/12/05 12:16:58;;;;;;;;;;;;;;;13.72;48.90;100207.34;5027970;28;19981;-84
2021/12/05 12:19:23;;;;;;;;;;;;;;;13.57;50.10;100212.00;5029466;28;19918;-85
2021/12/05 12:21:52;;;;;;;;;;;;;;;13.85;50.07;100210.06;5008352;28;19983;-84
2021/12/05 12:24:17;;;;;;;;;;;;;;;14.50;47.88;100208.94;5014157;28;19944;-85
2021/12/05 12:26:43;;;;;;;;;;;;;;;13.75;49.81;100221.59;5034229;28;20292;-83
2021/12/05 12:29:11;;;;;;;;;;;;;;;12.96;51.06;100223.38;5012895;28;19927;-83
2021/12/05 12:31:37;;;;;;;;;;;;;;;12.76;52.33;100231.03;5006245;28;19928;-85
2021/12/05 12:34:05;;;;;;;;;;;;;;;12.44;53.03;100238.59;5024916;28;19996;-84
2021/12/05 12:36:36;;;;;;;;;;;;;;;12.62;52.07;100241.94;5010953;28;20332;-83
2021/12/05 12:39:22;;;;;;;;;;;;;;;12.90;51.41;100237.38;5008682;28;19972;-82
2021/12/05 12:42:05;;;;;;;;;;;;;;;12.68;51.26;100249.66;5027394;28;20256;-86
2021/12/05 12:44:31;;;;;;;;;;;;;;;13.43;49.94;100245.59;5003548;28;19918;-87
2021/12/05 12:46:59;;;;;;;;;;;;;;;12.82;51.85;100250.56;5016080;28;19964;-84
2021/12/05 12:49:30;;;;;;;;;;;;;;;12.35;52.68;100264.47;5009646;28;19924;-83
2021/12/05 12:51:59;;;;;;;;;;;;;;;12.18;53.23;100264.66;5024582;28;19917;-86
2021/12/05 12:54:43;;;;;;;;;;;;;;;12.88;51.54;100263.78;5002686;28;19925;-85
2021/12/05 12:57:14;;;;;;;;;;;;;;;12.43;52.77;100272.09;5001013;28;19925;-86
2021/12/05 12:59:54;;;;;;;;;;;;;;;12.61;52.60;100272.75;5028560;28;19981;-86
2021/12/05 13:10:22;;;;;;;;;;;;;;;12.55;51.42;100286.72;5017610;28;19928;-86
2021/12/05 13:13:11;;;;;;;;;;;;;;;12.07;52.79;100283.47;5007560;28;20020;-87
2021/12/05 13:15:39;;;;;;;;;;;;;;;12.57;52.72;100290.19;5009491;28;19930;-88
2021/12/05 13:18:05;;;;;;;;;;;;;;;12.44;53.58;100290.13;5026069;28;20027;-87
2021/12/05 13:20:42;;;;;;;;;;;;;;;12.66;51.76;100289.59;5011018;28;19921;-88
2021/12/05 13:23:13;;;;;;;;;;;;;;;12.50;52.03;100299.69;5021275;28;19921;-86
2021/12/05 13:26:08;;;;;;;;;;;;;;;12.04;52.87;100311.63;5038048;28;19976;-86
2021/12/05 13:28:45;;;;;;;;;;;;;;;12.38;53.88;100304.94;5036112;28;19924;-85
2021/12/05 13:31:32;;;;;;;;;;;;;;;11.91;53.72;100310.59;5034927;28;19918;-84
2021/12/05 13:34:16;;;;;;;;;;;;;;;12.14;53.24;100318.22;5053115;28;19925;-85
2021/12/05 13:36:42;;;;;;;;;;;;;;;12.62;52.49;100312.50;5022045;28;19955;-84
2021/12/05 13:39:26;;;;;;;;;;;;;;;12.64;52.04;100315.97;5020002;28;19921;-87
2021/12/05 13:42:10;;;;;;;;;;;;;;;12.60;51.29;100314.41;5018062;28;19953;-85
2021/12/05 13:44:54;;;;;;;;;;;;;;;12.77;50.87;100314.19;5033782;28;19917;-83
2021/12/05 13:47:27;;;;;;;;;;;;;;;12.66;51.00;100322.16;5018132;28;19939;-86
2021/12/05 13:49:52;;;;;;;;;;;;;;;13.76;48.83;100320.31;5017692;28;19969;-86
2021/12/05 13:52:29;;;;;;;;;;;;;;;12.55;51.08;100328.28;5032906;28;19932;-85
2021/12/05 13:55:14;;;;;;;;;;;;;;;12.84;51.41;100333.66;5032860;28;19917;-86
2021/12/05 13:58:03;;;;;;;;;;;;;;;13.35;50.46;100338.50;5027555;28;19928;-86
2021/12/05 14:00:39;;;;;;;;;;;;;;;12.87;51.35;100336.19;5033516;28;19927;-83
2021/12/05 14:03:04;;;;;;;;;;;;;;;12.31;53.25;100352.41;5032943;28;19926;-85
2021/12/05 14:05:31;;;;;;;;;;;;;;;12.19;53.26;100347.78;5048401;28;19924;-85
2021/12/05 14:07:56;;;;;;;;;;;;;;;13.12;51.16;100346.28;5032531;28;19917;-85
2021/12/05 14:10:21;;;;;;;;;;;;;;;13.02;51.45;100356.03;5049976;28;19940;-87
2021/12/05 14:12:47;;;;;;;;;;;;;;;11.91;53.88;100371.09;5033622;28;19917;-86
2021/12/05 14:15:13;;;;;;;;;;;;;;;13.20;50.82;100372.94;5016965;28;19925;-85
2021/12/05 14:17:41;;;;;;;;;;;;;;;13.04;50.54;100377.63;5033631;28;19902;-86
2021/12/05 14:20:07;;;;;;;;;;;;;;;12.60;52.29;100390.41;5033740;28;19980;-85
2021/12/05 14:22:34;;;;;;;;;;;;;;;11.17;55.51;100398.03;5032813;28;19936;-85
2021/12/05 14:25:01;;;;;;;;;;;;;;;11.70;54.68;100394.97;5031456;28;19940;-85
2021/12/05 14:27:32;;;;;;;;;;;;;;;12.42;52.50;100406.00;5033079;28;19918;-86
2021/12/05 14:29:59;;;;;;;;;;;;;;;12.89;50.89;100410.25;5034186;28;19924;-87
2021/12/05 14:32:25;;;;;;;;;;;;;;;11.65;53.50;100416.91;5034024;28;19933;-85
2021/12/05 14:34:55;;;;;;;;;;;;;;;12.00;54.27;100424.81;5033198;28;19936;-85
2021/12/05 14:37:22;;;;;;;;;;;;;;;12.04;53.11;100430.91;5033066;28;19937;-84
2021/12/05 14:39:49;;;;;;;;;;;;;;;12.25;52.18;100434.16;5049990;28;19925;-85
2021/12/05 14:42:17;;;;;;;;;;;;;;;12.39;53.06;100431.50;5018142;28;19917;-86
2021/12/05 14:44:44;;;;;;;;;;;;;;;13.20;50.56;100437.28;5049419;28;19923;-84
2021/12/05 14:47:11;;;;;;;;;;;;;;;13.49;49.47;100448.97;5033009;28;20008;-85
2021/12/05 14:49:38;;;;;;;;;;;;;;;13.05;50.33;100450.00;5032537;28;19924;-84
2021/12/05 14:52:06;;;;;;;;;;;;;;;12.80;51.39;100456.13;5032488;28;19921;-85
2021/12/05 14:54:35;;;;;;;;;;;;;;;12.39;52.08;100464.03;5033914;28;19918;-85
2021/12/05 14:57:04;;;;;;;;;;;;;;;11.88;53.79;100475.19;5033912;28;19924;-84
2021/12/05 14:59:29;;;;;;;;;;;;;;;12.76;51.51;100472.59;5019534;28;19918;-87
2021/12/05 15:01:56;;;;;;;;;;;;;;;12.86;50.94;100482.88;5034193;28;20383;-87
2021/12/05 15:04:23;;;;;;;;;;;;;;;12.89;51.31;100493.53;5016164;28;19926;-85
2021/12/05 15:06:49;;;;;;;;;;;;;;;12.09;53.12;100504.72;5032759;28;19928;-86
2021/12/05 15:09:22;;;;;;;;;;;;;;;12.42;51.57;100509.09;5019765;28;20000;-85
2021/12/05 15:11:49;;;;;;;;;;;;;;;12.77;51.49;100515.06;5011064;28;20037;-81
2021/12/05 15:14:16;;;;;;;;;;;;;;;13.28;50.62;100522.72;4995997;28;19960;-84
2021/12/05 15:16:53;;;;;;;;;;;;;;;13.49;50.02;100525.06;4998775;28;20460;-83
2021/12/05 15:19:19;;;;;;;;;;;;;;;13.48;49.85;100531.44;5009255;28;19929;-83
2021/12/05 15:21:44;;;;;;;;;;;;;;;13.08;50.26;100529.41;5029147;28;20000;-83
2021/12/05 15:24:14;;;;;;;;;;;;;;;13.58;49.38;100538.03;5046219;28;19929;-82
2021/12/05 15:26:40;;;;;;;;;;;;;;;13.09;50.80;100538.47;5011923;28;19913;-82
2021/12/05 15:29:05;;;;;;;;;;;;;;;12.70;50.53;100553.53;5022947;28;19944;-82
2021/12/05 15:31:38;;;;;;;;;;;;;;;13.09;51.05;100552.91;5042233;28;19914;-82
2021/12/05 15:34:22;;;;;;;;;;;;;;;13.34;50.65;100554.09;5032915;28;19929;-83
2021/12/05 15:36:48;;;;;;;;;;;;;;;13.44;49.81;100560.69;5018776;28;19918;-84
2021/12/05 15:39:19;;;;;;;;;;;;;;;13.15;50.72;100564.34;5020421;28;20257;-83
2021/12/05 15:41:49;;;;;;;;;;;;;;;13.93;48.87;100566.59;5025019;28;19929;-85
2021/12/05 15:44:34;;;;;;;;;;;;;;;12.94;51.39;100572.88;5025855;28;19921;-82
2021/12/05 15:47:03;;;;;;;;;;;;;;;13.39;50.07;100579.13;5036927;28;19924;-83
2021/12/05 15:49:39;;;;;;;;;;;;;;;14.01;48.59;100580.59;5032425;28;20019;-83
2021/12/05 15:52:05;;;;;;;;;;;;;;;13.52;50.19;100579.22;5013079;28;19932;-85
2021/12/05 15:54:30;;;;;;;;;;;;;;;13.34;49.71;100575.81;5018633;28;20400;-84
2021/12/05 15:57:13;;;;;;;;;;;;;;;13.05;51.60;100586.66;5030170;28;19925;-85
2021/12/05 15:59:42;;;;;;;;;;;;;;;12.79;51.10;100596.41;5038695;28;19921;-83
2021/12/05 16:02:10;;;;;;;;;;;;;;;13.15;50.88;100607.81;5022928;28;19940;-85
2021/12/05 16:04:36;;;;;;;;;;;;;;;13.41;50.15;100609.78;5011105;28;19968;-84
2021/12/05 16:07:01;;;;;;;;;;;;;;;12.76;51.62;100607.47;5010419;28;19922;-86
2021/12/05 16:09:27;;;;;;;;;;;;;;;12.00;53.70;100614.59;5022263;28;20343;-83
2021/12/05 16:12:04;;;;;;;;;;;;;;;13.69;49.54;100621.59;5021755;28;19921;-83
2021/12/05 16:14:30;;;;;;;;;;;;;;;12.49;51.59;100628.97;5027540;28;20028;-86
2021/12/05 16:16:56;;;;;;;;;;;;;;;13.65;49.09;100628.22;5025487;28;19925;-86
2021/12/05 16:19:21;;;;;;;;;;;;;;;13.83;49.00;100635.19;5025162;28;19913;-86
2021/12/05 16:21:46;;;;;;;;;;;;;;;13.68;49.11;100636.19;5023762;28;19925;-88
2021/12/05 16:24:14;;;;;;;;;;;;;;;13.25;51.21;100642.44;5023861;28;19924;-86
2021/12/05 16:26:40;;;;;;;;;;;;;;;12.88;51.86;100643.84;5025452;28;20295;-85
2021/12/05 16:29:10;;;;;;;;;;;;;;;12.19;53.54;100648.78;5031423;28;19925;-87
2021/12/05 16:31:38;;;;;;;;;;;;;;;11.82;53.91;100659.88;5024873;28;20398;-87
2021/12/05 16:34:11;;;;;;;;;;;;;;;12.48;52.67;100662.50;5009044;28;19933;-87
2021/12/05 16:36:46;;;;;;;;;;;;;;;12.58;52.74;100671.84;5041238;28;19921;-88
2021/12/05 16:39:11;;;;;;;;;;;;;;;12.25;53.36;100674.69;5035302;28;19980;-90
2021/12/05 16:41:37;;;;;;;;;;;;;;;12.08;53.22;100678.34;5013413;28;19964;-86
2021/12/05 16:44:02;;;;;;;;;;;;;;;12.20;53.00;100688.53;5008609;28;19928;-86
2021/12/05 16:46:30;;;;;;;;;;;;;;;12.83;51.04;100678.53;5041723;28;19921;-87
2021/12/05 16:48:58;;;;;;;;;;;;;;;13.39;49.12;100687.81;5050437;28;19917;-82
2021/12/05 16:51:26;;;;;;;;;;;;;;;13.45;48.70;100700.13;5032959;28;19949;-82
2021/12/05 16:53:57;;;;;;;;;;;;;;;12.51;52.06;100698.47;5017990;28;19926;-83
2021/12/05 16:56:41;;;;;;;;;;;;;;;13.45;49.07;100709.19;5015764;28;19965;-82
2021/12/05 16:59:08;;;;;;;;;;;;;;;13.58;48.95;100714.72;5017044;28;19918;-81
2021/12/05 17:01:33;;;;;;;;;;;;;;;13.10;49.25;100720.34;5015215;28;19956;-81
2021/12/05 17:03:58;;;;;;;;;;;;;;;12.87;50.71;100723.53;4997590;28;19933;-82
2021/12/05 17:06:24;;;;;;;;;;;;;;;12.35;51.51;100731.03;5013952;28;19918;-85
2021/12/05 17:08:49;;;;;;;;;;;;;;;12.48;50.67;100733.91;5033270;28;19918;-83
2021/12/05 17:11:18;;;;;;;;;;;;;;;12.28;51.48;100745.91;5033987;28;19924;-83
2021/12/05 17:13:48;;;;;;;;;;;;;;;12.37;51.56;100747.22;5001688;28;19921;-84
2021/12/05 17:16:19;;;;;;;;;;;;;;;13.43;48.78;100745.56;5016853;28;19918;-85
2021/12/05 17:18:47;;;;;;;;;;;;;;;13.23;49.30;100747.63;5016401;28;19925;-83
2021/12/05 17:21:14;;;;;;;;;;;;;;;13.16;49.34;100767.09;5031621;28;19970;-87
2021/12/05 17:23:41;;;;;;;;;;;;;;;12.81;50.61;100775.50;4999534;28;19949;-90
2021/12/05 17:26:36;;;;;;;;;;;;;;;13.21;50.55;100781.28;5014575;28;20009;-83
2021/12/05 17:29:19;;;;;;;;;;;;;;;13.15;50.06;100782.53;5016122;28;19981;-85
2021/12/05 17:31:55;;;;;;;;;;;;;;;12.07;53.46;100790.50;5033359;28;19993;-84
2021/12/05 17:34:25;;;;;;;;;;;;;;;11.14;56.09;100798.00;5003963;28;19926;-88
2021/12/05 17:36:57;;;;;;;;;;;;;;;10.98;56.47;100806.91;5017772;28;19917;-88
2021/12/05 17:39:27;;;;;;;;;;;;;;;11.99;53.27;100810.75;5031940;28;19918;-91
2021/12/05 17:42:04;;;;;;;;;;;;;;;11.79;55.11;100816.34;4999129;28;19925;-89
2021/12/05 17:44:30;;;;;;;;;;;;;;;12.27;52.63;100814.66;5032042;28;20008;-86
2021/12/05 17:46:58;;;;;;;;;;;;;;;12.00;53.58;100836.94;5000571;28;20276;-83
2021/12/05 17:49:27;;;;;;;;;;;;;;;12.64;51.61;100836.19;5014660;28;19929;-84
2021/12/05 17:51:54;;;;;;;;;;;;;;;12.70;51.22;100836.69;5017773;28;20376;-84
2021/12/05 17:54:31;;;;;;;;;;;;;;;12.47;51.53;100837.09;5024093;28;19918;-86
2021/12/05 17:57:04;;;;;;;;;;;;;;;12.15;53.24;100839.75;5020806;28;20529;-85
2021/12/05 17:59:46;;;;;;;;;;;;;;;11.74;54.26;100845.53;5015945;28;19928;-84
2021/12/05 18:04:55;;;;;;;;;;;;;;;12.30;52.75;100849.75;4999402;28;19976;-86
2021/12/05 18:07:21;;;;;;;;;;;;;;;12.50;51.50;100851.41;5031123;28;19925;-84
2021/12/05 18:09:46;;;;;;;;;;;;;;;13.09;50.41;100854.38;5030971;28;19918;-88
2021/12/05 18:12:19;;;;;;;;;;;;;;;12.80;51.65;100860.59;5012722;28;19924;-85
2021/12/05 18:14:44;;;;;;;;;;;;;;;13.55;48.40;100864.41;5013626;28;20295;-82
2021/12/05 18:17:10;;;;;;;;;;;;;;;13.63;48.64;100863.94;5012778;28;19918;-85
2021/12/05 18:19:35;;;;;;;;;;;;;;;13.10;49.51;100877.88;5028876;28;19924;-83